Time;durP1;ratioP1;P1;durP2;ratioP2;P2;SDS_P1;SDS_P2;PMS_P1;PMS_P2;Temp;Humidity;BMP_temperature;BMP_pressure;BME280_temperature;BME280_humidity;BME280_pressure;Samples;Min_cycle;Max_cycle;Signal;HPM_P1;HPM_P2
2024/02/13 00:01:01;;;;;;;;;;;;;;;6.18;100.00;95771.16;108001;1289;25182;-84
2024/02/13 00:03:39;;;;;;;;;;;;;;;6.17;100.00;95773.98;108113;1289;22523;-85
2024/02/13 00:06:05;;;;;;;;;;;;;;;6.18;100.00;95776.16;107996;1289;22566;-84
2024/02/13 00:08:31;;;;;;;;;;;;;;;6.18;100.00;95782.16;108060;1289;22518;-85
2024/02/13 00:11:04;;;;;;;;;;;;;;;6.17;100.00;95784.92;108116;1277;23415;-84
2024/02/13 00:13:31;;;;;;;;;;;;;;;6.15;100.00;95787.16;108003;1289;25403;-85
2024/02/13 00:15:57;;;;;;;;;;;;;;;6.12;100.00;95788.70;107940;1289;22774;-84
2024/02/13 00:18:24;;;;;;;;;;;;;;;6.11;100.00;95793.67;107899;1289;23862;-85
2024/02/13 00:20:50;;;;;;;;;;;;;;;6.08;100.00;95796.20;108000;1282;22591;-85
2024/02/13 00:23:17;;;;;;;;;;;;;;;6.07;100.00;95801.52;107962;1289;22529;-84
2024/02/13 00:25:44;;;;;;;;;;;;;;;6.06;100.00;95804.02;108099;1289;22527;-85
2024/02/13 00:28:11;;;;;;;;;;;;;;;6.06;100.00;95812.30;107967;1289;23258;-84
2024/02/13 00:30:40;;;;;;;;;;;;;;;6.05;100.00;95816.85;108123;1289;23395;-84
2024/02/13 00:33:07;;;;;;;;;;;;;;;6.02;100.00;95817.63;108033;1289;22559;-85
2024/02/13 00:35:33;;;;;;;;;;;;;;;6.00;100.00;95820.94;107880;1289;22546;-85
2024/02/13 00:38:00;;;;;;;;;;;;;;;5.98;100.00;95822.73;108038;1289;25441;-84
2024/02/13 00:40:26;;;;;;;;;;;;;;;5.95;100.00;95827.70;108103;1289;25272;-84
2024/02/13 00:42:53;;;;;;;;;;;;;;;5.91;100.00;95828.95;107989;1289;25276;-84
2024/02/13 00:45:19;;;;;;;;;;;;;;;5.90;100.00;95835.27;108006;1289;23350;-84
2024/02/13 00:47:46;;;;;;;;;;;;;;;5.92;100.00;95835.27;108002;1289;22892;-84
2024/02/13 00:50:14;;;;;;;;;;;;;;;5.93;100.00;95836.86;107926;1289;22516;-85
2024/02/13 00:52:42;;;;;;;;;;;;;;;5.91;100.00;95840.32;107915;1289;22540;-84
2024/02/13 00:55:08;;;;;;;;;;;;;;;5.91;100.00;95841.64;107917;1289;22543;-85
2024/02/13 00:57:35;;;;;;;;;;;;;;;5.92;100.00;95841.30;108027;1289;22515;-85
2024/02/13 01:00:04;;;;;;;;;;;;;;;5.91;100.00;95843.97;107877;1289;25426;-85
2024/02/13 01:02:31;;;;;;;;;;;;;;;5.89;100.00;95845.48;108022;1289;25327;-85
2024/02/13 01:04:57;;;;;;;;;;;;;;;5.88;100.00;95850.23;107985;1289;24253;-85
2024/02/13 01:07:24;;;;;;;;;;;;;;;5.87;100.00;95851.59;108028;1289;25337;-85
2024/02/13 01:09:51;;;;;;;;;;;;;;;5.87;100.00;95854.50;108025;1280;24199;-85
2024/02/13 01:12:17;;;;;;;;;;;;;;;5.84;100.00;95855.84;108074;1289;26085;-85
2024/02/13 01:14:44;;;;;;;;;;;;;;;5.82;100.00;95860.23;107969;1283;25701;-84
2024/02/13 01:17:11;;;;;;;;;;;;;;;5.81;100.00;95862.74;107980;1283;22557;-84
2024/02/13 01:19:37;;;;;;;;;;;;;;;5.79;100.00;95869.62;108099;1283;24281;-84
2024/02/13 01:22:04;;;;;;;;;;;;;;;5.77;100.00;95867.98;107987;1289;23728;-85
2024/02/13 01:24:31;;;;;;;;;;;;;;;5.74;100.00;95870.70;107984;1286;25389;-84
2024/02/13 01:26:58;;;;;;;;;;;;;;;5.73;100.00;95873.54;108098;1289;22540;-85
2024/02/13 01:29:24;;;;;;;;;;;;;;;5.73;100.00;95872.18;108019;1286;22474;-85
2024/02/13 01:31:51;;;;;;;;;;;;;;;5.73;100.00;95877.14;108139;1283;25371;-84
2024/02/13 01:34:18;;;;;;;;;;;;;;;5.70;100.00;95875.88;107914;1289;22544;-85
2024/02/13 01:36:44;;;;;;;;;;;;;;;5.67;100.00;95877.82;108052;1289;22540;-85
2024/02/13 01:39:11;;;;;;;;;;;;;;;5.65;100.00;95882.63;108049;1289;22514;-84
2024/02/13 01:41:38;;;;;;;;;;;;;;;5.59;100.00;95884.27;108034;1289;22578;-84
2024/02/13 01:44:06;;;;;;;;;;;;;;;5.54;100.00;95887.38;108027;1280;22577;-83
2024/02/13 01:46:33;;;;;;;;;;;;;;;5.47;100.00;95894.48;108012;1290;22563;-84
2024/02/13 01:49:00;;;;;;;;;;;;;;;5.40;100.00;95892.79;107992;1283;22576;-85
2024/02/13 01:51:27;;;;;;;;;;;;;;;5.36;100.00;95897.48;107891;1290;24305;-85
2024/02/13 01:53:58;;;;;;;;;;;;;;;5.37;100.00;95902.33;107884;1290;23307;-85
2024/02/13 01:56:27;;;;;;;;;;;;;;;5.37;100.00;95900.36;107987;1290;24240;-84
2024/02/13 01:58:54;;;;;;;;;;;;;;;5.35;100.00;95906.23;108034;1280;23337;-84
2024/02/13 02:01:20;;;;;;;;;;;;;;;5.32;100.00;95907.56;107983;1283;22510;-84
2024/02/13 02:03:48;;;;;;;;;;;;;;;5.30;100.00;95909.91;107870;1283;22753;-85
2024/02/13 02:06:16;;;;;;;;;;;;;;;5.28;100.00;95911.98;108036;1288;23749;-84
2024/02/13 02:08:44;;;;;;;;;;;;;;;5.25;100.00;95914.71;107914;1285;22527;-85
2024/02/13 02:11:10;;;;;;;;;;;;;;;5.23;100.00;95915.23;108029;1283;22508;-84
2024/02/13 02:13:37;;;;;;;;;;;;;;;5.23;100.00;95917.00;107932;1283;22675;-84
2024/02/13 02:16:06;;;;;;;;;;;;;;;5.20;100.00;95914.32;108017;1290;22526;-84
2024/02/13 02:18:33;;;;;;;;;;;;;;;5.17;100.00;95921.16;107975;1290;22534;-84
2024/02/13 02:20:59;;;;;;;;;;;;;;;5.13;100.00;95917.98;108027;1282;22521;-84
2024/02/13 02:23:26;;;;;;;;;;;;;;;5.10;100.00;95919.98;108031;1278;22517;-84
2024/02/13 02:25:53;;;;;;;;;;;;;;;5.09;100.00;95921.30;107970;1290;22787;-84
2024/02/13 02:28:19;;;;;;;;;;;;;;;5.08;100.00;95923.71;107940;1283;22543;-85
2024/02/13 02:30:46;;;;;;;;;;;;;;;5.04;100.00;95924.41;108032;1280;22577;-85
2024/02/13 02:33:12;;;;;;;;;;;;;;;5.00;100.00;95928.29;107914;1289;22544;-84
2024/02/13 02:35:42;;;;;;;;;;;;;;;5.00;100.00;95932.79;108032;1290;22589;-84
2024/02/13 02:38:13;;;;;;;;;;;;;;;4.97;100.00;95933.56;108033;1290;22532;-85
2024/02/13 02:40:40;;;;;;;;;;;;;;;4.94;100.00;95929.58;107964;1284;22538;-86
2024/02/13 02:43:07;;;;;;;;;;;;;;;4.93;100.00;95933.63;107920;1290;22584;-86
2024/02/13 02:45:35;;;;;;;;;;;;;;;4.89;100.00;95932.52;107897;1285;25515;-86
2024/02/13 02:48:01;;;;;;;;;;;;;;;4.86;100.00;95941.06;107941;1284;22646;-86
2024/02/13 02:50:28;;;;;;;;;;;;;;;4.81;100.00;95949.41;107952;1282;22525;-86
2024/02/13 02:52:54;;;;;;;;;;;;;;;4.79;100.00;95950.67;107884;1286;24778;-87
2024/02/13 02:55:21;;;;;;;;;;;;;;;4.79;100.00;95952.90;107910;1283;22522;-86
2024/02/13 02:57:48;;;;;;;;;;;;;;;4.77;100.00;95954.50;107874;1285;23229;-86
2024/02/13 03:00:15;;;;;;;;;;;;;;;4.73;100.00;95957.48;107916;1276;22515;-86
2024/02/13 03:02:42;;;;;;;;;;;;;;;4.69;100.00;95959.21;107900;1290;22531;-86
2024/02/13 03:05:09;;;;;;;;;;;;;;;4.67;100.00;95962.68;107886;1290;22562;-86
2024/02/13 03:07:35;;;;;;;;;;;;;;;4.64;100.00;95967.12;107868;1277;22591;-86
2024/02/13 03:10:02;;;;;;;;;;;;;;;4.61;100.00;95963.70;107922;1283;22510;-86
2024/02/13 03:12:29;;;;;;;;;;;;;;;4.58;100.00;95969.48;109557;1289;22420;-87
2024/02/13 03:14:55;;;;;;;;;;;;;;;4.54;100.00;95968.33;109481;1290;22400;-87
2024/02/13 03:17:22;;;;;;;;;;;;;;;4.54;100.00;95970.21;109468;1290;22418;-86
2024/02/13 03:19:49;;;;;;;;;;;;;;;4.53;100.00;95970.44;109308;1289;22484;-87
2024/02/13 03:22:16;;;;;;;;;;;;;;;4.53;100.00;95973.94;109409;1290;22520;-87
2024/02/13 03:24:43;;;;;;;;;;;;;;;4.53;100.00;95979.09;109449;1290;22426;-87
2024/02/13 03:27:09;;;;;;;;;;;;;;;4.53;100.00;95986.39;109413;1283;22428;-87
2024/02/13 03:29:36;;;;;;;;;;;;;;;4.55;100.00;95992.79;108784;1286;22543;-86
2024/02/13 03:32:03;;;;;;;;;;;;;;;4.53;100.00;95998.75;107967;1284;22551;-86
2024/02/13 03:34:31;;;;;;;;;;;;;;;4.50;100.00;95997.70;108000;1283;22621;-86
2024/02/13 03:36:58;;;;;;;;;;;;;;;4.48;100.00;96005.28;107996;1290;22561;-86
2024/02/13 03:39:25;;;;;;;;;;;;;;;4.45;100.00;96010.97;107963;1283;23370;-86
2024/02/13 03:41:51;;;;;;;;;;;;;;;4.39;100.00;96013.27;107878;1286;22529;-86
2024/02/13 03:44:19;;;;;;;;;;;;;;;4.36;100.00;96012.89;107948;1283;22542;-86
2024/02/13 03:46:46;;;;;;;;;;;;;;;4.32;100.00;96021.14;109563;1283;22419;-87
2024/02/13 03:49:12;;;;;;;;;;;;;;;4.30;100.00;96022.36;109518;1283;22413;-87
2024/02/13 03:51:38;;;;;;;;;;;;;;;4.28;100.00;96022.58;109256;1286;22390;-87
2024/02/13 03:54:05;;;;;;;;;;;;;;;4.26;100.00;96023.98;109287;1286;22443;-87
2024/02/13 03:56:31;;;;;;;;;;;;;;;4.26;100.00;96025.88;108661;1283;22525;-86
2024/02/13 03:58:58;;;;;;;;;;;;;;;4.30;100.00;96027.15;108018;1290;22521;-86
2024/02/13 04:01:25;;;;;;;;;;;;;;;4.35;100.00;96026.63;107848;1290;22518;-86
2024/02/13 04:03:51;;;;;;;;;;;;;;;4.42;100.00;96029.45;107986;1284;22530;-86
2024/02/13 04:06:18;;;;;;;;;;;;;;;4.45;100.00;96031.84;108005;1286;22520;-86
2024/02/13 04:08:45;;;;;;;;;;;;;;;4.47;100.00;96032.62;107960;1290;22521;-86
2024/02/13 04:11:12;;;;;;;;;;;;;;;4.51;100.00;96035.86;107944;1290;22560;-86
2024/02/13 04:13:40;;;;;;;;;;;;;;;4.53;100.00;96036.98;107900;1283;25356;-86
2024/02/13 04:16:07;;;;;;;;;;;;;;;4.54;100.00;96036.28;107811;1286;22552;-86
2024/02/13 04:18:34;;;;;;;;;;;;;;;4.52;100.00;96041.58;108011;1290;23275;-85
2024/02/13 04:21:00;;;;;;;;;;;;;;;4.52;100.00;96039.90;107882;1284;22522;-86
2024/02/13 04:23:27;;;;;;;;;;;;;;;4.51;100.00;96035.20;107974;1290;22634;-86
2024/02/13 04:25:54;;;;;;;;;;;;;;;4.52;100.00;96038.33;107835;1286;22570;-86
2024/02/13 04:28:21;;;;;;;;;;;;;;;4.52;100.00;96038.00;107997;1286;25399;-86
2024/02/13 04:30:47;;;;;;;;;;;;;;;4.52;100.00;96041.55;107906;1286;22517;-86
2024/02/13 04:33:14;;;;;;;;;;;;;;;4.55;100.00;96042.70;107967;1288;22573;-85
2024/02/13 04:35:41;;;;;;;;;;;;;;;4.58;100.00;96046.74;107837;1289;22533;-86
2024/02/13 04:38:07;;;;;;;;;;;;;;;4.59;100.00;96046.58;107914;1290;23206;-86
2024/02/13 04:40:34;;;;;;;;;;;;;;;4.61;100.00;96053.13;107905;1290;22531;-86
2024/02/13 04:43:04;;;;;;;;;;;;;;;4.60;100.00;96058.16;107979;1290;22520;-86
2024/02/13 04:45:31;;;;;;;;;;;;;;;4.60;100.00;96056.92;107930;1290;22531;-86
2024/02/13 04:47:58;;;;;;;;;;;;;;;4.63;100.00;96060.44;107955;1290;22525;-86
2024/02/13 04:50:24;;;;;;;;;;;;;;;4.65;100.00;96064.65;107834;1277;22963;-86
2024/02/13 04:52:51;;;;;;;;;;;;;;;4.67;100.00;96067.48;107915;1290;24283;-86
2024/02/13 04:55:17;;;;;;;;;;;;;;;4.67;100.00;96069.90;107990;1283;22517;-86
2024/02/13 04:57:44;;;;;;;;;;;;;;;4.64;100.00;96070.95;107961;1283;22521;-86
2024/02/13 05:00:28;;;;;;;;;;;;;;;4.63;100.00;96070.92;107900;1291;22514;-85
2024/02/13 05:03:16;;;;;;;;;;;;;;;4.64;100.00;96073.56;107932;1283;22544;-85
2024/02/13 05:08:28;;;;;;;;;;;;;;;4.68;100.00;96082.20;107964;1290;22551;-86
2024/02/13 05:10:56;;;;;;;;;;;;;;;4.69;100.00;96087.89;107990;1290;22544;-85
2024/02/13 05:13:23;;;;;;;;;;;;;;;4.67;100.00;96089.14;107908;1290;23290;-86
2024/02/13 05:15:50;;;;;;;;;;;;;;;4.65;100.00;96095.58;107975;1290;22521;-86
2024/02/13 05:18:17;;;;;;;;;;;;;;;4.65;100.00;96102.39;107989;1290;22514;-86
2024/02/13 05:20:44;;;;;;;;;;;;;;;4.67;100.00;96104.98;107937;1290;22577;-86
2024/02/13 05:23:10;;;;;;;;;;;;;;;4.67;100.00;96104.23;107951;1290;22537;-85
2024/02/13 05:25:39;;;;;;;;;;;;;;;4.65;100.00;96110.02;107919;1288;22519;-85
2024/02/13 05:28:05;;;;;;;;;;;;;;;4.62;100.00;96116.91;107940;1283;22634;-85
2024/02/13 05:30:32;;;;;;;;;;;;;;;4.62;100.00;96114.56;107939;1290;22572;-86
2024/02/13 05:32:59;;;;;;;;;;;;;;;4.64;100.00;96118.30;107972;1290;22521;-86
2024/02/13 05:35:25;;;;;;;;;;;;;;;4.64;100.00;96121.58;107996;1283;23284;-86
2024/02/13 05:37:52;;;;;;;;;;;;;;;4.63;100.00;96124.61;107908;1283;22531;-85
2024/02/13 05:40:18;;;;;;;;;;;;;;;4.63;100.00;96132.45;107888;1283;22520;-86
2024/02/13 05:42:45;;;;;;;;;;;;;;;4.66;100.00;96133.70;107914;1283;24249;-85
2024/02/13 05:45:13;;;;;;;;;;;;;;;4.65;100.00;96138.96;107982;1279;22614;-86
2024/02/13 05:47:41;;;;;;;;;;;;;;;4.63;100.00;96144.98;107942;1286;22511;-86
2024/02/13 05:50:08;;;;;;;;;;;;;;;4.62;100.00;96147.48;107971;1284;22539;-86
2024/02/13 05:52:35;;;;;;;;;;;;;;;4.62;100.00;96156.77;107903;1290;22525;-86
2024/02/13 05:55:03;;;;;;;;;;;;;;;4.60;100.00;96164.38;107774;1291;22553;-86
2024/02/13 05:57:30;;;;;;;;;;;;;;;4.57;100.00;96170.86;107955;1290;25276;-86
2024/02/13 05:59:57;;;;;;;;;;;;;;;4.57;100.00;96176.14;107913;1290;22560;-86
2024/02/13 06:02:25;;;;;;;;;;;;;;;4.58;100.00;96180.36;107906;1279;22558;-85
2024/02/13 06:04:52;;;;;;;;;;;;;;;4.58;100.00;96186.12;107965;1290;22523;-86
2024/02/13 06:07:18;;;;;;;;;;;;;;;4.59;100.00;96191.40;107933;1290;22512;-86
2024/02/13 06:09:45;;;;;;;;;;;;;;;4.60;100.00;96198.15;107976;1290;22556;-86
2024/02/13 06:12:12;;;;;;;;;;;;;;;4.60;100.00;96199.29;107929;1283;24202;-85
2024/02/13 06:14:39;;;;;;;;;;;;;;;4.59;100.00;96203.36;107856;1290;22518;-86
2024/02/13 06:17:06;;;;;;;;;;;;;;;4.59;100.00;96208.89;107975;1290;22626;-86
2024/02/13 06:19:32;;;;;;;;;;;;;;;4.58;100.00;96210.50;107949;1283;23963;-86
2024/02/13 06:21:59;;;;;;;;;;;;;;;4.59;100.00;96211.50;107890;1286;22542;-86
2024/02/13 06:24:25;;;;;;;;;;;;;;;4.59;100.00;96207.02;107949;1283;22534;-86
2024/02/13 06:26:51;;;;;;;;;;;;;;;4.58;100.00;96213.23;107981;1283;22521;-86
2024/02/13 06:29:18;;;;;;;;;;;;;;;4.57;100.00;96217.98;107923;1283;22544;-85
2024/02/13 06:31:45;;;;;;;;;;;;;;;4.55;100.00;96222.67;107988;1283;22527;-86
2024/02/13 06:34:15;;;;;;;;;;;;;;;4.52;100.00;96229.11;108024;1280;22735;-85
2024/02/13 06:36:42;;;;;;;;;;;;;;;4.49;100.00;96228.29;107849;1288;22537;-86
2024/02/13 06:39:09;;;;;;;;;;;;;;;4.48;100.00;96237.29;107913;1288;22517;-85
2024/02/13 06:41:35;;;;;;;;;;;;;;;4.47;100.00;96241.91;107888;1280;22600;-85
2024/02/13 06:44:05;;;;;;;;;;;;;;;4.45;100.00;96246.40;107948;1277;22513;-85
2024/02/13 06:46:32;;;;;;;;;;;;;;;4.44;100.00;96250.93;107905;1283;22545;-86
2024/02/13 06:48:58;;;;;;;;;;;;;;;4.44;100.00;96255.23;107992;1289;22528;-85
2024/02/13 06:51:25;;;;;;;;;;;;;;;4.44;100.00;96259.93;108040;1289;22533;-86
2024/02/13 06:53:51;;;;;;;;;;;;;;;4.42;100.00;96266.90;107968;1280;23078;-85
2024/02/13 06:56:18;;;;;;;;;;;;;;;4.41;100.00;96266.89;108017;1289;25229;-86
2024/02/13 06:58:45;;;;;;;;;;;;;;;4.39;100.00;96270.98;107813;1281;22550;-85
2024/02/13 07:01:12;;;;;;;;;;;;;;;4.40;100.00;96276.42;107956;1280;22518;-85
2024/02/13 07:03:39;;;;;;;;;;;;;;;4.37;100.00;96279.52;108100;1280;24297;-86
2024/02/13 07:06:06;;;;;;;;;;;;;;;4.36;100.00;96284.31;107992;1283;22524;-86
2024/02/13 07:08:33;;;;;;;;;;;;;;;4.33;100.00;96284.90;108090;1283;25597;-86
2024/02/13 07:10:59;;;;;;;;;;;;;;;4.31;100.00;96288.54;107833;1290;22512;-86
2024/02/13 07:13:26;;;;;;;;;;;;;;;4.30;100.00;96295.52;107855;1289;22518;-86
2024/02/13 07:15:53;;;;;;;;;;;;;;;4.27;100.00;96298.80;107987;1283;22525;-86
2024/02/13 07:18:19;;;;;;;;;;;;;;;4.25;100.00;96303.86;108082;1289;22549;-86
2024/02/13 07:20:45;;;;;;;;;;;;;;;4.26;100.00;96309.59;107962;1282;24900;-86
2024/02/13 07:23:12;;;;;;;;;;;;;;;4.26;100.00;96310.52;107965;1282;24211;-86
2024/02/13 07:25:39;;;;;;;;;;;;;;;4.26;100.00;96312.73;108008;1281;25296;-86
2024/02/13 07:28:05;;;;;;;;;;;;;;;4.25;100.00;96313.86;107945;1283;25390;-86
2024/02/13 07:30:32;;;;;;;;;;;;;;;4.21;100.00;96319.94;108084;1289;22517;-86
2024/02/13 07:32:58;;;;;;;;;;;;;;;4.22;100.00;96317.36;107964;1283;22558;-85
2024/02/13 07:35:25;;;;;;;;;;;;;;;4.22;100.00;96317.00;107951;1288;22524;-86
2024/02/13 07:37:52;;;;;;;;;;;;;;;4.26;100.00;96320.45;107908;1289;23165;-86
2024/02/13 07:40:18;;;;;;;;;;;;;;;4.29;100.00;96330.13;107989;1281;22521;-86
2024/02/13 07:42:44;;;;;;;;;;;;;;;4.29;100.00;96329.42;107925;1289;22518;-86
2024/02/13 07:45:11;;;;;;;;;;;;;;;4.31;100.00;96334.91;108084;1283;22941;-86
2024/02/13 07:47:39;;;;;;;;;;;;;;;4.32;100.00;96338.90;108060;1289;24385;-86
2024/02/13 07:50:07;;;;;;;;;;;;;;;4.33;100.00;96343.13;108067;1284;25397;-86
2024/02/13 07:52:33;;;;;;;;;;;;;;;4.34;100.00;96344.55;108108;1282;22524;-85
2024/02/13 07:55:02;;;;;;;;;;;;;;;4.34;100.00;96346.73;107943;1273;22563;-86
2024/02/13 07:57:29;;;;;;;;;;;;;;;4.34;100.00;96346.61;107867;1289;22552;-86
2024/02/13 07:59:56;;;;;;;;;;;;;;;4.34;100.00;96344.52;108145;1289;22513;-85
2024/02/13 08:02:23;;;;;;;;;;;;;;;4.35;100.00;96350.61;108000;1279;22522;-86
2024/02/13 08:04:51;;;;;;;;;;;;;;;4.32;100.00;96350.52;107959;1289;22539;-86
2024/02/13 08:07:17;;;;;;;;;;;;;;;4.30;100.00;96353.52;107921;1289;25355;-86
2024/02/13 08:09:44;;;;;;;;;;;;;;;4.31;100.00;96354.77;108046;1289;22535;-86
2024/02/13 08:12:12;;;;;;;;;;;;;;;4.34;100.00;96356.41;108119;1281;22541;-85
2024/02/13 08:14:39;;;;;;;;;;;;;;;4.34;100.00;96363.05;107958;1284;22513;-86
2024/02/13 08:17:08;;;;;;;;;;;;;;;4.36;100.00;96366.46;108083;1281;23253;-86
2024/02/13 08:19:34;;;;;;;;;;;;;;;4.35;100.00;96366.09;108106;1283;22541;-86
2024/02/13 08:22:01;;;;;;;;;;;;;;;4.31;100.00;96370.40;107932;1289;22517;-86
2024/02/13 08:24:27;;;;;;;;;;;;;;;4.30;100.00;96376.83;108035;1281;26557;-86
2024/02/13 08:26:55;;;;;;;;;;;;;;;4.28;100.00;96373.37;107988;1281;22653;-86
2024/02/13 08:29:21;;;;;;;;;;;;;;;4.29;100.00;96380.01;107975;1289;25188;-86
2024/02/13 08:31:50;;;;;;;;;;;;;;;4.30;100.00;96384.34;107943;1284;22528;-86
2024/02/13 08:34:20;;;;;;;;;;;;;;;4.32;100.00;96387.08;108113;1283;22550;-86
2024/02/13 08:36:48;;;;;;;;;;;;;;;4.34;100.00;96387.90;107821;1286;22519;-86
2024/02/13 08:39:14;;;;;;;;;;;;;;;4.35;100.00;96388.33;107901;1289;22543;-86
2024/02/13 08:41:40;;;;;;;;;;;;;;;4.36;100.00;96392.38;107966;1289;22569;-86
2024/02/13 08:44:10;;;;;;;;;;;;;;;4.38;100.00;96391.17;107928;1280;22517;-86
2024/02/13 08:46:38;;;;;;;;;;;;;;;4.40;100.00;96396.13;107950;1283;22570;-86
2024/02/13 08:49:04;;;;;;;;;;;;;;;4.41;100.00;96395.17;109469;1289;23171;-87
2024/02/13 08:51:31;;;;;;;;;;;;;;;4.43;100.00;96394.23;109490;1289;22413;-87
2024/02/13 08:53:58;;;;;;;;;;;;;;;4.45;100.00;96396.30;109451;1289;22510;-87
2024/02/13 08:56:25;;;;;;;;;;;;;;;4.46;100.00;96395.16;109490;1289;22491;-87
2024/02/13 08:58:52;;;;;;;;;;;;;;;4.48;100.00;96398.42;109516;1283;22428;-86
2024/02/13 09:01:20;;;;;;;;;;;;;;;4.49;100.00;96396.09;109613;1284;22426;-87
2024/02/13 09:03:49;;;;;;;;;;;;;;;4.52;100.00;96399.58;109472;1289;23060;-87
2024/02/13 09:06:16;;;;;;;;;;;;;;;4.56;100.00;96398.20;109249;1281;23074;-87
2024/02/13 09:08:44;;;;;;;;;;;;;;;4.60;100.00;96398.88;109619;1287;22432;-87
2024/02/13 09:11:13;;;;;;;;;;;;;;;4.61;100.00;96402.02;109177;1277;22580;-84
2024/02/13 09:13:40;;;;;;;;;;;;;;;4.64;100.00;96401.85;107831;1284;22602;-85
2024/02/13 09:16:08;;;;;;;;;;;;;;;4.69;100.00;96399.90;107944;1289;23277;-84
2024/02/13 09:18:34;;;;;;;;;;;;;;;4.73;100.00;96401.88;107979;1281;23308;-84
2024/02/13 09:21:07;;;;;;;;;;;;;;;4.76;100.00;96406.43;107659;1282;592050;-84
2024/02/13 09:23:37;;;;;;;;;;;;;;;4.75;100.00;96403.78;107940;1289;24449;-84
2024/02/13 09:26:03;;;;;;;;;;;;;;;4.75;100.00;96408.23;107961;1289;22547;-85
2024/02/13 09:28:31;;;;;;;;;;;;;;;4.75;100.00;96406.83;107989;1290;22537;-85
2024/02/13 09:30:58;;;;;;;;;;;;;;;4.77;100.00;96413.67;107913;1290;22549;-84
2024/02/13 09:33:24;;;;;;;;;;;;;;;4.77;100.00;96411.45;107963;1289;22536;-84
2024/02/13 09:35:51;;;;;;;;;;;;;;;4.79;100.00;96415.42;107877;1286;22531;-85
2024/02/13 09:38:17;;;;;;;;;;;;;;;4.79;100.00;96415.08;107884;1290;22547;-85
2024/02/13 09:40:44;;;;;;;;;;;;;;;4.79;100.00;96419.84;107922;1289;23311;-85
2024/02/13 09:43:10;;;;;;;;;;;;;;;4.81;100.00;96419.85;107865;1289;22538;-84
2024/02/13 09:45:41;;;;;;;;;;;;;;;4.83;100.00;96422.73;107942;1289;22517;-85
2024/02/13 09:48:15;;;;;;;;;;;;;;;4.87;100.00;96418.79;107900;1289;22552;-84
2024/02/13 09:50:42;;;;;;;;;;;;;;;4.91;100.00;96424.73;108109;1289;22601;-85
2024/02/13 09:53:27;;;;;;;;;;;;;;;4.94;100.00;96427.94;107918;1289;23134;-84
2024/02/13 09:56:00;;;;;;;;;;;;;;;4.99;100.00;96425.38;107915;1289;24240;-86
2024/02/13 09:58:26;;;;;;;;;;;;;;;5.00;100.00;96424.59;107970;1289;22571;-86
2024/02/13 10:00:53;;;;;;;;;;;;;;;4.99;100.00;96425.52;107914;1288;22512;-86
2024/02/13 10:03:19;;;;;;;;;;;;;;;5.01;100.00;96423.63;107905;1289;22549;-86
2024/02/13 10:05:46;;;;;;;;;;;;;;;5.05;100.00;96424.29;107983;1286;22562;-86
2024/02/13 10:08:14;;;;;;;;;;;;;;;5.09;100.00;96423.17;107823;1283;22566;-86
2024/02/13 10:10:42;;;;;;;;;;;;;;;5.12;100.00;96425.48;107847;1289;22525;-86
2024/02/13 10:13:12;;;;;;;;;;;;;;;5.15;100.00;96426.55;107980;1289;22537;-86
2024/02/13 10:15:42;;;;;;;;;;;;;;;5.23;100.00;96427.74;107895;1286;22518;-86
2024/02/13 10:18:11;;;;;;;;;;;;;;;5.28;100.00;96423.92;107967;1272;22556;-87
2024/02/13 10:20:39;;;;;;;;;;;;;;;5.31;100.00;96429.97;107932;1288;23237;-86
2024/02/13 10:23:05;;;;;;;;;;;;;;;5.36;100.00;96427.82;107952;1280;22523;-86
2024/02/13 10:25:32;;;;;;;;;;;;;;;5.42;100.00;96431.71;108162;1271;22515;-87
2024/02/13 10:28:02;;;;;;;;;;;;;;;5.46;100.00;96430.64;107996;1289;22546;-86
2024/02/13 10:30:29;;;;;;;;;;;;;;;5.48;100.00;96428.89;108063;1289;23320;-86
2024/02/13 10:33:00;;;;;;;;;;;;;;;5.52;99.91;96428.50;107987;1283;22527;-86
2024/02/13 10:35:29;;;;;;;;;;;;;;;5.56;99.91;96427.80;107861;1289;22508;-86
2024/02/13 10:37:56;;;;;;;;;;;;;;;5.61;100.00;96430.05;107992;1281;22542;-86
2024/02/13 10:40:27;;;;;;;;;;;;;;;5.64;99.75;96435.74;107958;1289;22562;-86
2024/02/13 10:42:54;;;;;;;;;;;;;;;5.65;99.15;96438.04;108158;1289;22517;-87
2024/02/13 10:45:23;;;;;;;;;;;;;;;5.68;99.01;96442.18;107918;1283;22546;-86
2024/02/13 10:47:51;;;;;;;;;;;;;;;5.70;97.58;96443.22;108087;1289;22556;-86
2024/02/13 10:50:17;;;;;;;;;;;;;;;5.69;95.76;96443.48;107864;1289;22566;-86
2024/02/13 10:52:44;;;;;;;;;;;;;;;5.68;96.99;96446.30;107991;1289;22544;-86
2024/02/13 10:55:12;;;;;;;;;;;;;;;5.67;96.70;96447.24;107875;1289;22544;-86
2024/02/13 10:57:38;;;;;;;;;;;;;;;5.68;95.70;96449.60;108002;1286;25251;-86
2024/02/13 11:00:08;;;;;;;;;;;;;;;5.68;96.04;96451.84;107993;1289;22524;-87
2024/02/13 11:02:36;;;;;;;;;;;;;;;5.70;95.40;96447.37;107928;1277;22728;-86
2024/02/13 11:05:06;;;;;;;;;;;;;;;5.72;95.13;96449.20;107930;1289;25401;-86
2024/02/13 11:07:33;;;;;;;;;;;;;;;5.75;95.62;96450.50;107841;1289;23402;-86
2024/02/13 11:10:00;;;;;;;;;;;;;;;5.80;97.17;96449.98;107907;1289;23172;-86
2024/02/13 11:12:27;;;;;;;;;;;;;;;5.84;96.67;96452.30;108059;1289;22592;-85
2024/02/13 11:14:53;;;;;;;;;;;;;;;5.84;95.88;96451.16;108106;1289;22566;-85
2024/02/13 11:17:20;;;;;;;;;;;;;;;5.82;95.89;96451.29;108003;1289;22536;-85
2024/02/13 11:19:47;;;;;;;;;;;;;;;5.80;94.70;96456.14;108019;1283;22471;-85
2024/02/13 11:22:14;;;;;;;;;;;;;;;5.78;94.99;96453.59;107977;1288;22539;-85
2024/02/13 11:24:42;;;;;;;;;;;;;;;5.79;94.03;96456.09;108054;1284;22521;-85
2024/02/13 11:27:17;;;;;;;;;;;;;;;5.79;94.67;96459.88;107952;1289;22585;-85
2024/02/13 11:29:54;;;;;;;;;;;;;;;5.80;93.73;96458.40;107925;1289;22571;-85
2024/02/13 11:32:28;;;;;;;;;;;;;;;5.78;93.41;96457.55;107930;1283;22520;-85
2024/02/13 11:34:57;;;;;;;;;;;;;;;5.77;93.13;96459.73;109641;1289;22374;-85
2024/02/13 11:37:27;;;;;;;;;;;;;;;5.75;92.80;96461.10;109451;1289;23017;-85
2024/02/13 11:40:13;;;;;;;;;;;;;;;5.78;93.46;96462.44;109652;1285;22367;-85
2024/02/13 11:42:40;;;;;;;;;;;;;;;5.82;93.83;96461.63;109522;1284;23279;-83
2024/02/13 11:45:07;;;;;;;;;;;;;;;5.85;93.15;96464.65;109439;1286;22448;-83
2024/02/13 11:47:34;;;;;;;;;;;;;;;5.86;93.03;96468.80;109649;1287;22434;-83
2024/02/13 11:50:00;;;;;;;;;;;;;;;5.88;92.16;96467.61;109611;1289;23221;-83
2024/02/13 11:52:27;;;;;;;;;;;;;;;5.91;92.95;96466.73;109628;1273;23191;-83
2024/02/13 11:54:53;;;;;;;;;;;;;;;5.97;91.64;96465.48;109642;1283;22436;-83
2024/02/13 11:57:19;;;;;;;;;;;;;;;6.02;91.47;96468.15;109641;1282;22454;-83
2024/02/13 12:00:04;;;;;;;;;;;;;;;6.04;91.54;96466.93;109463;1289;23259;-83
2024/02/13 12:02:33;;;;;;;;;;;;;;;6.10;92.19;96467.15;109478;1288;23036;-83
2024/02/13 12:04:59;;;;;;;;;;;;;;;6.18;91.77;96466.52;107923;1283;23389;-85
2024/02/13 12:07:27;;;;;;;;;;;;;;;6.22;91.16;96472.62;108056;1285;22534;-85
2024/02/13 12:09:53;;;;;;;;;;;;;;;6.24;91.31;96472.27;107831;1285;23097;-84
2024/02/13 12:12:20;;;;;;;;;;;;;;;6.27;90.54;96474.09;107945;1286;23101;-85
2024/02/13 12:14:49;;;;;;;;;;;;;;;6.25;90.42;96473.70;108047;1287;24104;-84
2024/02/13 12:17:16;;;;;;;;;;;;;;;6.24;88.75;96473.69;107847;1287;23130;-84
2024/02/13 12:19:43;;;;;;;;;;;;;;;6.22;89.47;96473.00;107969;1289;23640;-84
2024/02/13 12:22:13;;;;;;;;;;;;;;;6.22;89.36;96470.97;108142;1283;24306;-85
2024/02/13 12:24:39;;;;;;;;;;;;;;;6.22;88.74;96473.71;107972;1284;23120;-85
2024/02/13 12:27:09;;;;;;;;;;;;;;;6.19;88.10;96473.83;108101;1289;24341;-85
2024/02/13 12:29:38;;;;;;;;;;;;;;;6.16;86.98;96473.95;107976;1284;23280;-84
2024/02/13 12:32:09;;;;;;;;;;;;;;;6.15;87.79;96479.55;107945;1289;22536;-84
2024/02/13 12:34:36;;;;;;;;;;;;;;;6.14;87.46;96477.39;109621;1282;22419;-85
2024/02/13 12:37:08;;;;;;;;;;;;;;;6.15;86.42;96484.58;109486;1289;23010;-85
2024/02/13 12:39:36;;;;;;;;;;;;;;;6.14;86.97;96491.02;109498;1289;22362;-85
2024/02/13 12:42:05;;;;;;;;;;;;;;;6.14;84.76;96496.87;109468;1287;23164;-85